Terminal Aerodrome Forecast
Issued by NWS

Home | Current Version | Previous Version | Text Only | Print | Product List | Glossary On
Versions: 1 2 3 4 5 6 7 8 9 10 11 12 13 14
000
FTUS45 KREV 191200 AAA
TAFTRK
TAF AMD
KTRK 191203Z 1912/2012 00000KT 1/4SM FZFG VV002
     FM191600 VRB04KT P6SM SCT180
     FM192000 24014G24KT P6SM SCT060 SCT180
     FM200300 VRB03KT P6SM SKC=

USA.gov is the U.S. government's official web portal to all federal, state and local government web resources and services.